• Join FlightAware (Why Join?)
  • Login
  • US Flag 
04:51PM EDT


 

Airport Tracker/Info


-or-


 

Live Flight TrackerFlight Track Log ✈ SKW5631 ✈ 24-Apr-2013 ✈ KDEN - KCOD

Flight Track Log - Related Links

Times and Time Zones

All times are in EDT time to prevent confusion due to time zone crossing. See the SKW5631 flight status page for this flight to view local times or setup timezone preferences in your user account.

Time Position Orientation Groundspeed Altitude Reporting Facility
EDT Latitude Longitude Course Direction KTS MPH feet Rate Location/Type
09:56PM 39.9167 -104.6833 346° North 177 204 6,900  Level Denver TRACON
09:57PM 39.9833 -104.6667 11° North 231 266 9,300 2,100 Climbing Denver TRACON
09:58PM 40.0500 -104.6500 11° North 290 334 11,200 1,920 Climbing Denver TRACON
09:59PM 40.1500 -104.6833 346° North 315 362 13,200 1,740 Climbing Denver TRACON
10:00PM 40.2333 -104.7000 351° North 300 345 14,700 2,400 Climbing Denver TRACON
10:01PM 40.2589 -104.7106 343° North 336 387 16,200 2,520 Climbing Denver Center
10:02PM 40.3169 -104.8167 346° North  Level FlightAware Approximate
10:02PM 40.3533 -104.7356 349° North 346 398 18,000  Level Denver Center
10:03PM 40.4472 -104.7614 348° North 345 397 19,700 1,740 Climbing Denver Center
10:04PM 40.5539 -104.7883 349° North 361 415 21,600 1,500 Climbing Denver Center
10:05PM 40.6519 -104.8181 347° North 366 421 22,800 1,140 Climbing Denver Center
10:06PM 40.7553 -104.8414 350° North 366 421 24,000 1,080 Climbing Denver Center
10:07PM 40.8539 -104.8822 343° North 371 427 25,100 960 Climbing Denver Center
10:08PM 40.9456 -104.9492 331° Northwest 377 434 26,100 1,200 Climbing Denver Center
10:09PM 41.0328 -105.0389 322° Northwest 369 425 27,600 1,200 Climbing Denver Center
10:10PM 41.1106 -105.1150 324° Northwest 364 419 28,600 1,020 Climbing Denver Center
10:11PM 41.2014 -105.2089 322° Northwest 368 423 29,800 1,260 Climbing Denver Center
10:12PM 41.2747 -105.2847 322° Northwest 355 409 31,300 1,020 Climbing Denver Center
10:13PM 41.3597 -105.3706 323° Northwest 345 397 32,000 300 Climbing Denver Center
10:14PM 41.4333 -105.4461 322° Northwest 347 399 32,000  Level Denver Center
10:15PM 41.5244 -105.5419 322° Northwest 367 422 32,000  Level Denver Center
10:16PM 41.6044 -105.6242 322° Northwest 376 433 32,000  Level Denver Center
10:17PM 41.6864 -105.7106 322° Northwest 386 444 32,000  Level Denver Center
10:18PM 41.7831 -105.8117 322° Northwest 394 453 32,000  Level Denver Center
10:19PM 41.8681 -105.9019 322° Northwest 403 464 32,000  Level Denver Center
10:20PM 41.9689 -106.0078 322° Northwest 408 470 32,000  Level Denver Center
10:21PM 42.0547 -106.0964 323° Northwest 406 467 32,000  Level Denver Center
10:22PM 42.1528 -106.2019 321° Northwest 404 465 32,000  Level Denver Center
10:23PM 42.2392 -106.2939 322° Northwest 410 472 32,000  Level Denver Center
10:24PM 42.3258 -106.3850 322° Northwest 412 474 32,000  Level Denver Center
10:25PM 42.4258 -106.4919 322° Northwest 409 471 32,000  Level Denver Center
10:26PM 42.5128 -106.5856 322° Northwest 416 479 32,000  Level Denver Center
10:27PM 42.6131 -106.6931 322° Northwest 411 473 32,000  Level Denver Center
10:28PM 42.7000 -106.7881 321° Northwest 417 480 32,000  Level Denver Center
10:30PM 42.7875 -106.8814 322° Northwest 418 481 32,000  Level Denver Center
10:31PM 42.8875 -106.9922 321° Northwest 415 478 32,000  Level Denver Center
10:32PM 42.9742 -107.0869 321° Northwest 416 479 32,000  Level Denver Center
10:33PM 43.0456 -107.1658 321° Northwest 415 478 32,000  Level Denver Center
10:34PM 43.1617 -107.2947 321° Northwest 414 476 32,000  Level Denver Center
10:34PM 43.2322 -107.3761 320° Northwest 417 480 32,000  Level Salt Lake Center
10:35PM 43.3189 -107.4714 321° Northwest 418 481 32,000  Level Salt Lake Center
10:36PM 43.4197 -107.5844 321° Northwest 418 481 32,000  Level Salt Lake Center
10:38PM 43.5064 -107.6814 321° Northwest 418 481 32,000  Level Salt Lake Center
10:39PM 43.6081 -107.7953 321° Northwest 421 484 32,000  Level Salt Lake Center
10:40PM 43.6939 -107.8953 320° Northwest 422 486 32,000  Level Salt Lake Center
10:41PM 43.7961 -108.0100 321° Northwest 423 487 32,000 -840 Level Salt Lake Center
10:42PM 43.8828 -108.1089 321° Northwest 421 484 30,400 -2,160 Descending Salt Lake Center
10:43PM 43.9717 -108.2128 320° Northwest 433 498 27,600 -2,940 Descending Salt Lake Center
10:44PM 44.0714 -108.3244 321° Northwest 413 475 24,400 -2,940 Descending Salt Lake Center
10:45PM 44.1567 -108.4247 320° Northwest 416 479 21,600 -3,000 Descending Salt Lake Center
10:46PM 44.2558 -108.5375 321° Northwest 411 473 18,300 -2,940 Descending Salt Lake Center
10:47PM 44.3336 -108.6278 320° Northwest 390 449 15,600 -2,820 Descending Salt Lake Center
10:48PM 44.4042 -108.7114 320° Northwest 368 423 12,600 -2,700 Descending Salt Lake Center
10:49PM 44.4803 -108.7992 321° Northwest 339 390 10,100 -1,860 Descending Salt Lake Center
10:50PM 44.5331 -108.8506 325° Northwest 278 320 8,900 -1,260 Descending Salt Lake Center
10:51PM 44.5894 -108.8989 329° Northwest 235 270 7,600 -1,200 Descending Salt Lake Center
10:52PM 44.5675 -108.9458 237° Southwest 178 205 6,500 -1,140 Descending Salt Lake Center